sensor_id;sensor_type;location;lat;lon;timestamp;temperature;humidity
14097;DHT22;7125;48.106;11.544;2023-05-29T00:01:24;11.20;99.90
14097;DHT22;7125;48.106;11.544;2023-05-29T00:03:51;11.20;99.90
14097;DHT22;7125;48.106;11.544;2023-05-29T00:06:19;11.20;99.90
14097;DHT22;7125;48.106;11.544;2023-05-29T00:08:46;11.20;99.90
14097;DHT22;7125;48.106;11.544;2023-05-29T00:11:13;11.20;99.90
14097;DHT22;7125;48.106;11.544;2023-05-29T00:13:40;11.10;99.90
14097;DHT22;7125;48.106;11.544;2023-05-29T00:16:10;11.10;99.90
14097;DHT22;7125;48.106;11.544;2023-05-29T00:18:37;11.00;99.90
14097;DHT22;7125;48.106;11.544;2023-05-29T00:21:11;11.00;99.90
14097;DHT22;7125;48.106;11.544;2023-05-29T00:23:38;11.00;99.90
14097;DHT22;7125;48.106;11.544;2023-05-29T00:26:05;11.00;99.90
14097;DHT22;7125;48.106;11.544;2023-05-29T00:28:34;11.00;99.90
14097;DHT22;7125;48.106;11.544;2023-05-29T00:31:01;10.90;99.90
14097;DHT22;7125;48.106;11.544;2023-05-29T00:33:30;10.90;99.90
14097;DHT22;7125;48.106;11.544;2023-05-29T00:35:57;10.80;99.90
14097;DHT22;7125;48.106;11.544;2023-05-29T00:38:24;10.80;99.90
14097;DHT22;7125;48.106;11.544;2023-05-29T00:40:51;10.80;99.90
14097;DHT22;7125;48.106;11.544;2023-05-29T00:43:18;10.70;99.90
14097;DHT22;7125;48.106;11.544;2023-05-29T00:45:45;10.70;99.90
14097;DHT22;7125;48.106;11.544;2023-05-29T00:48:12;10.70;99.90
14097;DHT22;7125;48.106;11.544;2023-05-29T00:50:40;10.60;99.90
14097;DHT22;7125;48.106;11.544;2023-05-29T00:53:08;10.60;99.90
14097;DHT22;7125;48.106;11.544;2023-05-29T00:55:38;10.60;99.90
14097;DHT22;7125;48.106;11.544;2023-05-29T00:58:06;10.60;99.90
14097;DHT22;7125;48.106;11.544;2023-05-29T01:00:33;10.50;99.90
14097;DHT22;7125;48.106;11.544;2023-05-29T01:03:03;10.50;99.90
14097;DHT22;7125;48.106;11.544;2023-05-29T01:05:33;10.50;99.90
14097;DHT22;7125;48.106;11.544;2023-05-29T01:08:02;10.50;99.90
14097;DHT22;7125;48.106;11.544;2023-05-29T01:10:30;10.50;99.90
14097;DHT22;7125;48.106;11.544;2023-05-29T01:13:00;10.40;99.90
14097;DHT22;7125;48.106;11.544;2023-05-29T01:15:37;10.30;99.90
14097;DHT22;7125;48.106;11.544;2023-05-29T01:18:31;10.30;99.90
14097;DHT22;7125;48.106;11.544;2023-05-29T01:21:06;10.30;99.90
14097;DHT22;7125;48.106;11.544;2023-05-29T01:23:53;10.30;99.90
14097;DHT22;7125;48.106;11.544;2023-05-29T01:26:32;10.20;99.90
14097;DHT22;7125;48.106;11.544;2023-05-29T01:29:04;10.20;99.90
14097;DHT22;7125;48.106;11.544;2023-05-29T01:31:34;10.30;99.90
14097;DHT22;7125;48.106;11.544;2023-05-29T01:34:02;10.30;99.90
14097;DHT22;7125;48.106;11.544;2023-05-29T01:36:30;10.30;99.90
14097;DHT22;7125;48.106;11.544;2023-05-29T01:38:59;10.20;99.90
14097;DHT22;7125;48.106;11.544;2023-05-29T01:41:26;10.10;99.90
14097;DHT22;7125;48.106;11.544;2023-05-29T01:43:55;10.00;99.90
14097;DHT22;7125;48.106;11.544;2023-05-29T01:46:23;10.00;99.90
14097;DHT22;7125;48.106;11.544;2023-05-29T01:48:51;10.00;99.90
14097;DHT22;7125;48.106;11.544;2023-05-29T01:51:19;10.00;99.90
14097;DHT22;7125;48.106;11.544;2023-05-29T01:53:46;10.00;99.90
14097;DHT22;7125;48.106;11.544;2023-05-29T01:56:13;9.90;99.90
14097;DHT22;7125;48.106;11.544;2023-05-29T01:58:41;9.90;99.90
14097;DHT22;7125;48.106;11.544;2023-05-29T02:01:09;9.80;99.90
14097;DHT22;7125;48.106;11.544;2023-05-29T02:03:36;9.80;99.90
14097;DHT22;7125;48.106;11.544;2023-05-29T02:06:04;9.90;99.90
14097;DHT22;7125;48.106;11.544;2023-05-29T02:08:32;9.80;99.90
14097;DHT22;7125;48.106;11.544;2023-05-29T02:10:59;9.80;99.90
14097;DHT22;7125;48.106;11.544;2023-05-29T02:13:26;9.80;99.90
14097;DHT22;7125;48.106;11.544;2023-05-29T02:15:53;9.80;99.90
14097;DHT22;7125;48.106;11.544;2023-05-29T02:18:23;9.70;99.90
14097;DHT22;7125;48.106;11.544;2023-05-29T02:20:52;9.70;99.90
14097;DHT22;7125;48.106;11.544;2023-05-29T02:23:22;9.70;99.90
14097;DHT22;7125;48.106;11.544;2023-05-29T02:25:50;9.70;99.90
14097;DHT22;7125;48.106;11.544;2023-05-29T02:28:17;9.60;99.90
14097;DHT22;7125;48.106;11.544;2023-05-29T02:30:44;9.60;99.90
14097;DHT22;7125;48.106;11.544;2023-05-29T02:33:11;9.60;99.90
14097;DHT22;7125;48.106;11.544;2023-05-29T02:35:40;9.50;99.90
14097;DHT22;7125;48.106;11.544;2023-05-29T02:38:06;9.50;99.90
14097;DHT22;7125;48.106;11.544;2023-05-29T02:40:33;9.50;99.90
14097;DHT22;7125;48.106;11.544;2023-05-29T02:43:04;9.50;99.90
14097;DHT22;7125;48.106;11.544;2023-05-29T02:45:31;9.50;99.90
14097;DHT22;7125;48.106;11.544;2023-05-29T02:47:59;9.40;99.90
14097;DHT22;7125;48.106;11.544;2023-05-29T02:50:26;9.40;99.90
14097;DHT22;7125;48.106;11.544;2023-05-29T02:52:55;9.40;99.90
14097;DHT22;7125;48.106;11.544;2023-05-29T02:55:22;9.30;99.90
14097;DHT22;7125;48.106;11.544;2023-05-29T02:57:49;9.30;99.90
14097;DHT22;7125;48.106;11.544;2023-05-29T03:00:19;9.30;99.90
14097;DHT22;7125;48.106;11.544;2023-05-29T03:02:46;9.30;99.90
14097;DHT22;7125;48.106;11.544;2023-05-29T03:05:20;9.20;99.90
14097;DHT22;7125;48.106;11.544;2023-05-29T03:07:47;9.20;99.90
14097;DHT22;7125;48.106;11.544;2023-05-29T03:10:15;9.20;99.90
14097;DHT22;7125;48.106;11.544;2023-05-29T03:12:42;9.10;99.90
14097;DHT22;7125;48.106;11.544;2023-05-29T03:15:10;9.10;99.90
14097;DHT22;7125;48.106;11.544;2023-05-29T03:17:37;9.10;99.90
14097;DHT22;7125;48.106;11.544;2023-05-29T03:20:10;9.10;99.90
14097;DHT22;7125;48.106;11.544;2023-05-29T03:22:37;9.00;99.90
14097;DHT22;7125;48.106;11.544;2023-05-29T03:25:05;9.10;99.90
14097;DHT22;7125;48.106;11.544;2023-05-29T03:27:36;9.00;99.90
14097;DHT22;7125;48.106;11.544;2023-05-29T03:30:12;9.00;99.90
14097;DHT22;7125;48.106;11.544;2023-05-29T03:32:39;9.00;99.90
14097;DHT22;7125;48.106;11.544;2023-05-29T03:35:07;9.00;99.90
14097;DHT22;7125;48.106;11.544;2023-05-29T03:37:37;9.00;99.90
14097;DHT22;7125;48.106;11.544;2023-05-29T03:40:06;9.00;99.90
14097;DHT22;7125;48.106;11.544;2023-05-29T03:42:33;9.00;99.90
14097;DHT22;7125;48.106;11.544;2023-05-29T03:45:03;9.00;99.90
14097;DHT22;7125;48.106;11.544;2023-05-29T03:47:32;9.00;99.90
14097;DHT22;7125;48.106;11.544;2023-05-29T03:50:00;9.00;99.90
14097;DHT22;7125;48.106;11.544;2023-05-29T03:52:29;9.00;99.90
14097;DHT22;7125;48.106;11.544;2023-05-29T03:54:56;9.00;99.90
14097;DHT22;7125;48.106;11.544;2023-05-29T03:57:23;8.90;99.90
14097;DHT22;7125;48.106;11.544;2023-05-29T03:59:52;9.00;99.90
14097;DHT22;7125;48.106;11.544;2023-05-29T04:02:21;9.00;99.90
14097;DHT22;7125;48.106;11.544;2023-05-29T04:04:47;9.10;99.90
14097;DHT22;7125;48.106;11.544;2023-05-29T04:07:16;9.10;99.90
14097;DHT22;7125;48.106;11.544;2023-05-29T04:09:45;9.10;99.90
14097;DHT22;7125;48.106;11.544;2023-05-29T04:12:12;9.10;99.90
14097;DHT22;7125;48.106;11.544;2023-05-29T04:14:39;9.10;99.90
14097;DHT22;7125;48.106;11.544;2023-05-29T04:17:06;9.20;99.90
14097;DHT22;7125;48.106;11.544;2023-05-29T04:19:34;9.20;99.90
14097;DHT22;7125;48.106;11.544;2023-05-29T04:22:01;9.30;99.90
14097;DHT22;7125;48.106;11.544;2023-05-29T04:24:28;9.30;99.90
14097;DHT22;7125;48.106;11.544;2023-05-29T04:26:57;9.30;99.90
14097;DHT22;7125;48.106;11.544;2023-05-29T04:29:26;9.30;99.90
14097;DHT22;7125;48.106;11.544;2023-05-29T04:31:53;9.40;99.90
14097;DHT22;7125;48.106;11.544;2023-05-29T04:34:21;9.40;99.90
14097;DHT22;7125;48.106;11.544;2023-05-29T04:36:49;9.50;99.90
14097;DHT22;7125;48.106;11.544;2023-05-29T04:39:16;9.50;99.90
14097;DHT22;7125;48.106;11.544;2023-05-29T04:41:44;9.60;99.90
14097;DHT22;7125;48.106;11.544;2023-05-29T04:44:15;9.70;99.90
14097;DHT22;7125;48.106;11.544;2023-05-29T04:46:45;9.80;99.90
14097;DHT22;7125;48.106;11.544;2023-05-29T04:49:14;9.90;99.90
14097;DHT22;7125;48.106;11.544;2023-05-29T04:51:41;9.90;99.90
14097;DHT22;7125;48.106;11.544;2023-05-29T04:54:11;10.00;99.90
14097;DHT22;7125;48.106;11.544;2023-05-29T04:56:40;10.10;99.90
14097;DHT22;7125;48.106;11.544;2023-05-29T04:59:10;10.10;99.90
14097;DHT22;7125;48.106;11.544;2023-05-29T05:01:37;10.30;99.90
14097;DHT22;7125;48.106;11.544;2023-05-29T05:04:04;10.30;99.90
14097;DHT22;7125;48.106;11.544;2023-05-29T05:06:31;10.40;99.90
14097;DHT22;7125;48.106;11.544;2023-05-29T05:08:58;10.50;99.90
14097;DHT22;7125;48.106;11.544;2023-05-29T05:11:28;10.60;99.90
14097;DHT22;7125;48.106;11.544;2023-05-29T05:13:56;10.60;99.90
14097;DHT22;7125;48.106;11.544;2023-05-29T05:16:24;10.80;99.90
14097;DHT22;7125;48.106;11.544;2023-05-29T05:18:52;10.90;99.90
14097;DHT22;7125;48.106;11.544;2023-05-29T05:21:19;11.00;99.90
14097;DHT22;7125;48.106;11.544;2023-05-29T05:23:46;11.10;99.90
14097;DHT22;7125;48.106;11.544;2023-05-29T05:26:13;11.20;99.90
14097;DHT22;7125;48.106;11.544;2023-05-29T05:28:41;11.30;99.90
14097;DHT22;7125;48.106;11.544;2023-05-29T05:31:08;11.40;99.90
14097;DHT22;7125;48.106;11.544;2023-05-29T05:33:37;11.50;99.90
14097;DHT22;7125;48.106;11.544;2023-05-29T05:36:04;11.60;99.90
14097;DHT22;7125;48.106;11.544;2023-05-29T05:38:32;11.80;99.90
14097;DHT22;7125;48.106;11.544;2023-05-29T05:41:00;11.90;99.90
14097;DHT22;7125;48.106;11.544;2023-05-29T05:43:30;12.00;99.90
14097;DHT22;7125;48.106;11.544;2023-05-29T05:46:06;12.10;99.90
14097;DHT22;7125;48.106;11.544;2023-05-29T05:48:35;12.20;99.90
14097;DHT22;7125;48.106;11.544;2023-05-29T05:51:02;12.30;99.90
14097;DHT22;7125;48.106;11.544;2023-05-29T05:53:30;12.40;99.90
14097;DHT22;7125;48.106;11.544;2023-05-29T05:55:57;12.50;99.90
14097;DHT22;7125;48.106;11.544;2023-05-29T05:58:25;12.50;99.90
14097;DHT22;7125;48.106;11.544;2023-05-29T06:00:55;12.60;99.90
14097;DHT22;7125;48.106;11.544;2023-05-29T06:03:25;12.80;99.90
14097;DHT22;7125;48.106;11.544;2023-05-29T06:05:57;12.90;99.90
14097;DHT22;7125;48.106;11.544;2023-05-29T06:08:24;13.00;99.90
14097;DHT22;7125;48.106;11.544;2023-05-29T06:10:52;13.10;99.90
14097;DHT22;7125;48.106;11.544;2023-05-29T06:13:19;13.30;99.90
14097;DHT22;7125;48.106;11.544;2023-05-29T06:15:54;13.40;99.90
14097;DHT22;7125;48.106;11.544;2023-05-29T06:18:21;13.60;99.90
14097;DHT22;7125;48.106;11.544;2023-05-29T06:20:50;13.80;99.90
14097;DHT22;7125;48.106;11.544;2023-05-29T06:23:17;13.90;99.90
14097;DHT22;7125;48.106;11.544;2023-05-29T06:25:44;14.10;99.90
14097;DHT22;7125;48.106;11.544;2023-05-29T06:28:11;14.30;99.90
14097;DHT22;7125;48.106;11.544;2023-05-29T06:30:39;14.50;99.90
14097;DHT22;7125;48.106;11.544;2023-05-29T06:33:07;14.70;99.90
14097;DHT22;7125;48.106;11.544;2023-05-29T06:35:36;14.90;99.90
14097;DHT22;7125;48.106;11.544;2023-05-29T06:38:05;15.00;99.90
14097;DHT22;7125;48.106;11.544;2023-05-29T06:40:32;15.20;99.90
14097;DHT22;7125;48.106;11.544;2023-05-29T06:43:02;15.30;99.90
14097;DHT22;7125;48.106;11.544;2023-05-29T06:45:38;15.40;99.90
14097;DHT22;7125;48.106;11.544;2023-05-29T06:48:05;15.60;99.90
14097;DHT22;7125;48.106;11.544;2023-05-29T06:50:32;15.70;99.90
14097;DHT22;7125;48.106;11.544;2023-05-29T06:53:10;15.90;99.90
14097;DHT22;7125;48.106;11.544;2023-05-29T06:55:47;16.00;99.90
14097;DHT22;7125;48.106;11.544;2023-05-29T06:58:14;16.10;99.90
14097;DHT22;7125;48.106;11.544;2023-05-29T07:00:41;16.20;99.90
14097;DHT22;7125;48.106;11.544;2023-05-29T07:03:43;16.40;99.90
14097;DHT22;7125;48.106;11.544;2023-05-29T07:06:10;16.60;98.50
14097;DHT22;7125;48.106;11.544;2023-05-29T07:08:38;16.80;98.40
14097;DHT22;7125;48.106;11.544;2023-05-29T07:11:06;16.90;98.30
14097;DHT22;7125;48.106;11.544;2023-05-29T07:13:33;17.00;97.40
14097;DHT22;7125;48.106;11.544;2023-05-29T07:16:01;17.10;97.60
14097;DHT22;7125;48.106;11.544;2023-05-29T07:18:32;17.20;97.10
14097;DHT22;7125;48.106;11.544;2023-05-29T07:21:00;17.30;96.20
14097;DHT22;7125;48.106;11.544;2023-05-29T07:23:29;17.40;96.30
14097;DHT22;7125;48.106;11.544;2023-05-29T07:25:59;17.50;95.80
14097;DHT22;7125;48.106;11.544;2023-05-29T07:28:29;17.60;95.90
14097;DHT22;7125;48.106;11.544;2023-05-29T07:30:56;17.70;95.80
14097;DHT22;7125;48.106;11.544;2023-05-29T07:33:23;17.80;96.10
14097;DHT22;7125;48.106;11.544;2023-05-29T07:35:53;17.80;95.60
14097;DHT22;7125;48.106;11.544;2023-05-29T07:38:20;18.00;94.60
14097;DHT22;7125;48.106;11.544;2023-05-29T07:40:48;18.00;94.80
14097;DHT22;7125;48.106;11.544;2023-05-29T07:43:26;18.10;94.80
14097;DHT22;7125;48.106;11.544;2023-05-29T07:45:58;18.20;93.60
14097;DHT22;7125;48.106;11.544;2023-05-29T07:48:25;18.40;93.60
14097;DHT22;7125;48.106;11.544;2023-05-29T07:50:52;18.50;93.30
14097;DHT22;7125;48.106;11.544;2023-05-29T07:53:19;18.50;93.10
14097;DHT22;7125;48.106;11.544;2023-05-29T07:55:47;18.60;93.80
14097;DHT22;7125;48.106;11.544;2023-05-29T07:58:15;18.60;93.30
14097;DHT22;7125;48.106;11.544;2023-05-29T08:00:45;18.70;92.90
14097;DHT22;7125;48.106;11.544;2023-05-29T08:03:13;18.70;92.70
14097;DHT22;7125;48.106;11.544;2023-05-29T08:05:59;18.80;92.60
14097;DHT22;7125;48.106;11.544;2023-05-29T08:08:28;18.90;93.00
14097;DHT22;7125;48.106;11.544;2023-05-29T08:10:55;19.00;92.50
14097;DHT22;7125;48.106;11.544;2023-05-29T08:13:22;19.00;92.30
14097;DHT22;7125;48.106;11.544;2023-05-29T08:15:51;19.10;92.90
14097;DHT22;7125;48.106;11.544;2023-05-29T08:18:18;19.20;91.70
14097;DHT22;7125;48.106;11.544;2023-05-29T08:20:45;19.30;92.60
14097;DHT22;7125;48.106;11.544;2023-05-29T08:23:11;19.40;91.60
14097;DHT22;7125;48.106;11.544;2023-05-29T08:25:38;19.50;91.30
14097;DHT22;7125;48.106;11.544;2023-05-29T08:28:07;19.50;91.60
14097;DHT22;7125;48.106;11.544;2023-05-29T08:30:34;19.60;91.50
14097;DHT22;7125;48.106;11.544;2023-05-29T08:33:02;19.60;92.10
14097;DHT22;7125;48.106;11.544;2023-05-29T08:35:30;19.80;92.10
14097;DHT22;7125;48.106;11.544;2023-05-29T08:37:57;19.80;92.10
14097;DHT22;7125;48.106;11.544;2023-05-29T08:40:24;20.00;91.30
14097;DHT22;7125;48.106;11.544;2023-05-29T08:42:56;20.10;91.70
14097;DHT22;7125;48.106;11.544;2023-05-29T08:45:24;20.20;91.70
14097;DHT22;7125;48.106;11.544;2023-05-29T08:47:52;20.20;91.40
14097;DHT22;7125;48.106;11.544;2023-05-29T08:50:21;20.20;90.80
14097;DHT22;7125;48.106;11.544;2023-05-29T08:52:49;20.20;91.30
14097;DHT22;7125;48.106;11.544;2023-05-29T08:55:16;20.20;91.80
14097;DHT22;7125;48.106;11.544;2023-05-29T08:57:43;20.20;91.40
14097;DHT22;7125;48.106;11.544;2023-05-29T09:00:12;20.30;91.90
14097;DHT22;7125;48.106;11.544;2023-05-29T09:02:39;20.30;90.80
14097;DHT22;7125;48.106;11.544;2023-05-29T09:05:07;20.30;90.60
14097;DHT22;7125;48.106;11.544;2023-05-29T09:07:37;20.30;90.60
14097;DHT22;7125;48.106;11.544;2023-05-29T09:10:05;20.30;91.20
14097;DHT22;7125;48.106;11.544;2023-05-29T09:12:33;20.30;91.50
14097;DHT22;7125;48.106;11.544;2023-05-29T09:15:00;20.40;91.10
14097;DHT22;7125;48.106;11.544;2023-05-29T09:17:31;20.60;91.50
14097;DHT22;7125;48.106;11.544;2023-05-29T09:19:58;20.70;91.00
14097;DHT22;7125;48.106;11.544;2023-05-29T09:22:26;20.80;90.80
14097;DHT22;7125;48.106;11.544;2023-05-29T09:24:54;20.90;91.00
14097;DHT22;7125;48.106;11.544;2023-05-29T09:27:22;21.00;90.20
14097;DHT22;7125;48.106;11.544;2023-05-29T09:29:49;21.10;87.70
14097;DHT22;7125;48.106;11.544;2023-05-29T09:32:18;21.20;89.40
14097;DHT22;7125;48.106;11.544;2023-05-29T09:34:45;21.20;88.00
14097;DHT22;7125;48.106;11.544;2023-05-29T09:37:13;21.30;88.10
14097;DHT22;7125;48.106;11.544;2023-05-29T09:39:47;21.30;87.60
14097;DHT22;7125;48.106;11.544;2023-05-29T09:42:15;21.50;87.10
14097;DHT22;7125;48.106;11.544;2023-05-29T09:44:44;21.60;83.80
14097;DHT22;7125;48.106;11.544;2023-05-29T09:47:14;21.60;84.40
14097;DHT22;7125;48.106;11.544;2023-05-29T09:49:43;21.80;83.00
14097;DHT22;7125;48.106;11.544;2023-05-29T09:52:11;21.80;84.30
14097;DHT22;7125;48.106;11.544;2023-05-29T09:54:42;21.80;80.40
14097;DHT22;7125;48.106;11.544;2023-05-29T09:57:12;21.80;79.40
14097;DHT22;7125;48.106;11.544;2023-05-29T09:59:41;21.90;81.50
14097;DHT22;7125;48.106;11.544;2023-05-29T10:02:10;21.90;83.00
14097;DHT22;7125;48.106;11.544;2023-05-29T10:04:39;22.00;83.10
14097;DHT22;7125;48.106;11.544;2023-05-29T10:07:09;22.00;82.90
14097;DHT22;7125;48.106;11.544;2023-05-29T10:09:41;22.10;81.40
14097;DHT22;7125;48.106;11.544;2023-05-29T10:12:11;22.20;80.60
14097;DHT22;7125;48.106;11.544;2023-05-29T10:14:41;22.30;79.00
14097;DHT22;7125;48.106;11.544;2023-05-29T10:17:09;22.20;77.50
14097;DHT22;7125;48.106;11.544;2023-05-29T10:19:42;22.30;79.20
14097;DHT22;7125;48.106;11.544;2023-05-29T10:22:10;22.30;78.40
14097;DHT22;7125;48.106;11.544;2023-05-29T10:24:37;22.30;77.20
14097;DHT22;7125;48.106;11.544;2023-05-29T10:27:05;22.30;75.80
14097;DHT22;7125;48.106;11.544;2023-05-29T10:29:48;22.40;75.20
14097;DHT22;7125;48.106;11.544;2023-05-29T10:32:21;22.50;76.60
14097;DHT22;7125;48.106;11.544;2023-05-29T10:34:56;22.60;77.30
14097;DHT22;7125;48.106;11.544;2023-05-29T10:37:32;22.70;75.00
14097;DHT22;7125;48.106;11.544;2023-05-29T10:40:04;22.80;72.50
14097;DHT22;7125;48.106;11.544;2023-05-29T10:42:44;22.90;73.00
14097;DHT22;7125;48.106;11.544;2023-05-29T10:45:47;22.80;73.00
14097;DHT22;7125;48.106;11.544;2023-05-29T10:48:37;22.60;72.10
14097;DHT22;7125;48.106;11.544;2023-05-29T10:51:06;22.50;72.90
14097;DHT22;7125;48.106;11.544;2023-05-29T10:53:34;22.50;74.50
14097;DHT22;7125;48.106;11.544;2023-05-29T10:56:08;22.70;71.40
14097;DHT22;7125;48.106;11.544;2023-05-29T10:58:41;22.90;71.00
14097;DHT22;7125;48.106;11.544;2023-05-29T11:01:09;23.00;71.30
14097;DHT22;7125;48.106;11.544;2023-05-29T11:03:37;23.10;71.90
14097;DHT22;7125;48.106;11.544;2023-05-29T11:06:05;23.30;71.00
14097;DHT22;7125;48.106;11.544;2023-05-29T11:08:34;23.60;69.70
14097;DHT22;7125;48.106;11.544;2023-05-29T11:11:02;23.60;70.40
14097;DHT22;7125;48.106;11.544;2023-05-29T11:13:33;23.70;67.90
14097;DHT22;7125;48.106;11.544;2023-05-29T11:16:20;23.70;67.90
14097;DHT22;7125;48.106;11.544;2023-05-29T11:19:04;23.70;68.80
14097;DHT22;7125;48.106;11.544;2023-05-29T11:21:34;23.80;69.30
14097;DHT22;7125;48.106;11.544;2023-05-29T11:24:06;23.90;68.00
14097;DHT22;7125;48.106;11.544;2023-05-29T11:26:33;24.00;66.70
14097;DHT22;7125;48.106;11.544;2023-05-29T11:29:02;24.00;68.20
14097;DHT22;7125;48.106;11.544;2023-05-29T11:31:32;24.00;69.00
14097;DHT22;7125;48.106;11.544;2023-05-29T11:34:03;24.10;66.40
14097;DHT22;7125;48.106;11.544;2023-05-29T11:36:33;24.10;64.60
14097;DHT22;7125;48.106;11.544;2023-05-29T11:39:01;24.20;63.80
14097;DHT22;7125;48.106;11.544;2023-05-29T11:41:29;24.10;66.30
14097;DHT22;7125;48.106;11.544;2023-05-29T11:43:57;24.10;64.00
14097;DHT22;7125;48.106;11.544;2023-05-29T11:46:24;24.00;64.00
14097;DHT22;7125;48.106;11.544;2023-05-29T11:48:54;24.00;64.60
14097;DHT22;7125;48.106;11.544;2023-05-29T11:51:21;24.00;62.50
14097;DHT22;7125;48.106;11.544;2023-05-29T11:53:49;24.00;63.50
14097;DHT22;7125;48.106;11.544;2023-05-29T11:56:19;24.00;63.70
14097;DHT22;7125;48.106;11.544;2023-05-29T11:58:46;24.10;63.00
14097;DHT22;7125;48.106;11.544;2023-05-29T12:01:16;24.20;63.00
14097;DHT22;7125;48.106;11.544;2023-05-29T12:03:44;24.20;63.00
14097;DHT22;7125;48.106;11.544;2023-05-29T12:06:13;24.20;63.00
14097;DHT22;7125;48.106;11.544;2023-05-29T12:08:40;24.30;61.70
14097;DHT22;7125;48.106;11.544;2023-05-29T12:11:07;24.40;61.50
14097;DHT22;7125;48.106;11.544;2023-05-29T12:13:34;24.40;62.10
14097;DHT22;7125;48.106;11.544;2023-05-29T12:16:03;24.50;62.10
14097;DHT22;7125;48.106;11.544;2023-05-29T12:18:31;24.50;61.60
14097;DHT22;7125;48.106;11.544;2023-05-29T12:21:00;24.50;58.00
14097;DHT22;7125;48.106;11.544;2023-05-29T12:23:29;24.50;59.90
14097;DHT22;7125;48.106;11.544;2023-05-29T12:25:56;24.60;61.30
14097;DHT22;7125;48.106;11.544;2023-05-29T12:28:25;24.70;61.70
14097;DHT22;7125;48.106;11.544;2023-05-29T12:30:58;24.80;60.50
14097;DHT22;7125;48.106;11.544;2023-05-29T12:33:27;24.90;59.00
14097;DHT22;7125;48.106;11.544;2023-05-29T12:36:00;24.90;60.30
14097;DHT22;7125;48.106;11.544;2023-05-29T12:38:28;25.00;60.70
14097;DHT22;7125;48.106;11.544;2023-05-29T12:40:55;25.20;60.60
14097;DHT22;7125;48.106;11.544;2023-05-29T12:43:22;25.30;60.10
14097;DHT22;7125;48.106;11.544;2023-05-29T12:45:54;25.30;59.50
14097;DHT22;7125;48.106;11.544;2023-05-29T12:48:26;25.10;58.20
14097;DHT22;7125;48.106;11.544;2023-05-29T12:50:53;25.10;58.50
14097;DHT22;7125;48.106;11.544;2023-05-29T12:53:20;25.10;59.70
14097;DHT22;7125;48.106;11.544;2023-05-29T12:55:49;25.10;58.50
14097;DHT22;7125;48.106;11.544;2023-05-29T12:58:16;25.10;59.50
14097;DHT22;7125;48.106;11.544;2023-05-29T13:00:44;25.20;59.10
14097;DHT22;7125;48.106;11.544;2023-05-29T13:03:12;25.40;59.30
14097;DHT22;7125;48.106;11.544;2023-05-29T13:05:40;25.50;58.80
14097;DHT22;7125;48.106;11.544;2023-05-29T13:08:07;25.60;57.50
14097;DHT22;7125;48.106;11.544;2023-05-29T13:10:34;25.50;57.10
14097;DHT22;7125;48.106;11.544;2023-05-29T13:13:02;25.60;56.60
14097;DHT22;7125;48.106;11.544;2023-05-29T13:15:29;25.60;56.30
14097;DHT22;7125;48.106;11.544;2023-05-29T13:17:58;25.50;57.80
14097;DHT22;7125;48.106;11.544;2023-05-29T13:20:25;25.50;56.60
14097;DHT22;7125;48.106;11.544;2023-05-29T13:22:53;25.60;58.20
14097;DHT22;7125;48.106;11.544;2023-05-29T13:25:20;25.70;58.20
14097;DHT22;7125;48.106;11.544;2023-05-29T13:27:49;25.80;57.90
14097;DHT22;7125;48.106;11.544;2023-05-29T13:30:18;25.90;55.80
14097;DHT22;7125;48.106;11.544;2023-05-29T13:32:45;25.80;55.60
14097;DHT22;7125;48.106;11.544;2023-05-29T13:35:12;25.70;56.30
14097;DHT22;7125;48.106;11.544;2023-05-29T13:37:39;25.60;56.60
14097;DHT22;7125;48.106;11.544;2023-05-29T13:40:07;25.80;57.90
14097;DHT22;7125;48.106;11.544;2023-05-29T13:42:35;25.80;57.80
14097;DHT22;7125;48.106;11.544;2023-05-29T13:45:03;25.80;57.40
14097;DHT22;7125;48.106;11.544;2023-05-29T13:47:33;25.80;58.20
14097;DHT22;7125;48.106;11.544;2023-05-29T13:50:00;25.90;57.30
14097;DHT22;7125;48.106;11.544;2023-05-29T13:52:27;25.90;57.30
14097;DHT22;7125;48.106;11.544;2023-05-29T13:54:54;25.90;56.40
14097;DHT22;7125;48.106;11.544;2023-05-29T13:57:23;25.90;58.30
14097;DHT22;7125;48.106;11.544;2023-05-29T13:59:50;26.00;57.90
14097;DHT22;7125;48.106;11.544;2023-05-29T14:02:17;26.00;56.00
14097;DHT22;7125;48.106;11.544;2023-05-29T14:04:45;26.10;56.90
14097;DHT22;7125;48.106;11.544;2023-05-29T14:07:12;26.20;56.40
14097;DHT22;7125;48.106;11.544;2023-05-29T14:09:39;26.30;55.20
14097;DHT22;7125;48.106;11.544;2023-05-29T14:12:07;26.30;55.50
14097;DHT22;7125;48.106;11.544;2023-05-29T14:14:34;26.40;56.30
14097;DHT22;7125;48.106;11.544;2023-05-29T14:17:01;26.50;53.20
14097;DHT22;7125;48.106;11.544;2023-05-29T14:19:29;26.40;54.50
14097;DHT22;7125;48.106;11.544;2023-05-29T14:21:57;26.30;53.70
14097;DHT22;7125;48.106;11.544;2023-05-29T14:24:25;26.30;53.80
14097;DHT22;7125;48.106;11.544;2023-05-29T14:26:52;26.30;54.40
14097;DHT22;7125;48.106;11.544;2023-05-29T14:29:20;26.30;53.30
14097;DHT22;7125;48.106;11.544;2023-05-29T14:31:47;26.30;56.00
14097;DHT22;7125;48.106;11.544;2023-05-29T14:34:14;26.40;56.00
14097;DHT22;7125;48.106;11.544;2023-05-29T14:36:41;26.50;55.70
14097;DHT22;7125;48.106;11.544;2023-05-29T14:39:11;26.60;55.90
14097;DHT22;7125;48.106;11.544;2023-05-29T14:41:38;26.70;55.30
14097;DHT22;7125;48.106;11.544;2023-05-29T14:44:05;26.80;54.50
14097;DHT22;7125;48.106;11.544;2023-05-29T14:46:32;26.90;54.00
14097;DHT22;7125;48.106;11.544;2023-05-29T14:48:59;27.00;53.60
14097;DHT22;7125;48.106;11.544;2023-05-29T14:51:27;27.10;53.70
14097;DHT22;7125;48.106;11.544;2023-05-29T14:53:54;27.20;52.50
14097;DHT22;7125;48.106;11.544;2023-05-29T14:56:22;27.10;54.00
14097;DHT22;7125;48.106;11.544;2023-05-29T14:58:49;27.10;53.50
14097;DHT22;7125;48.106;11.544;2023-05-29T15:01:17;27.00;54.70
14097;DHT22;7125;48.106;11.544;2023-05-29T15:03:45;27.00;54.90
14097;DHT22;7125;48.106;11.544;2023-05-29T15:06:12;27.00;54.30
14097;DHT22;7125;48.106;11.544;2023-05-29T15:08:39;27.00;55.30
14097;DHT22;7125;48.106;11.544;2023-05-29T15:11:08;27.00;53.70
14097;DHT22;7125;48.106;11.544;2023-05-29T15:13:39;27.10;54.30
14097;DHT22;7125;48.106;11.544;2023-05-29T15:16:06;27.00;53.00
14097;DHT22;7125;48.106;11.544;2023-05-29T15:18:33;26.90;52.90
14097;DHT22;7125;48.106;11.544;2023-05-29T15:21:01;26.80;53.30
14097;DHT22;7125;48.106;11.544;2023-05-29T15:23:28;26.90;52.50
14097;DHT22;7125;48.106;11.544;2023-05-29T15:25:56;26.80;52.90
14097;DHT22;7125;48.106;11.544;2023-05-29T15:28:23;26.80;51.90
14097;DHT22;7125;48.106;11.544;2023-05-29T15:30:52;26.70;52.80
14097;DHT22;7125;48.106;11.544;2023-05-29T15:33:19;26.50;51.70
14097;DHT22;7125;48.106;11.544;2023-05-29T15:35:48;26.40;54.10
14097;DHT22;7125;48.106;11.544;2023-05-29T15:38:15;26.40;52.60
14097;DHT22;7125;48.106;11.544;2023-05-29T15:40:42;26.30;53.70
14097;DHT22;7125;48.106;11.544;2023-05-29T15:43:09;26.30;54.80